createdAt,value
2024-02-19T00:00:19.610Z,62.27
2024-02-19T00:02:48.857Z,62.08
2024-02-19T00:05:21.460Z,61.62
2024-02-19T00:07:51.214Z,61.89
2024-02-19T00:10:23.271Z,61.45
2024-02-19T00:12:53.008Z,62.04
2024-02-19T00:15:22.172Z,61.50
2024-02-19T00:17:51.613Z,61.79
2024-02-19T00:20:24.895Z,62.40
2024-02-19T00:22:55.055Z,62.41
2024-02-19T00:25:25.925Z,61.31
2024-02-19T00:27:55.152Z,61.70
2024-02-19T00:30:24.513Z,62.20
2024-02-19T00:32:54.775Z,61.96
2024-02-19T00:35:28.565Z,62.56
2024-02-19T00:37:57.320Z,62.61
2024-02-19T00:40:26.697Z,62.13
2024-02-19T00:42:55.750Z,62.06
2024-02-19T00:45:28.103Z,61.79
2024-02-19T00:47:58.167Z,61.56
2024-02-19T00:50:27.563Z,61.63
2024-02-19T00:52:56.616Z,60.36
2024-02-19T00:55:28.035Z,60.75
2024-02-19T00:57:56.830Z,60.77
2024-02-19T01:00:27.645Z,60.70
2024-02-19T01:02:56.910Z,61.22
2024-02-19T01:05:29.741Z,60.76
2024-02-19T01:07:58.524Z,61.28
2024-02-19T01:10:27.637Z,60.88
2024-02-19T01:12:56.706Z,61.26
2024-02-19T01:15:28.393Z,61.10
2024-02-19T01:17:57.975Z,60.83
2024-02-19T01:20:26.792Z,61.05
2024-02-19T01:22:57.038Z,61.30
2024-02-19T01:25:32.732Z,61.57
2024-02-19T01:28:01.791Z,60.91
2024-02-19T01:30:32.698Z,61.30
2024-02-19T01:33:03.052Z,61.49
2024-02-19T01:35:34.144Z,61.66
2024-02-19T01:38:05.352Z,61.66
2024-02-19T01:40:34.561Z,61.52
2024-02-19T01:43:04.246Z,61.97
2024-02-19T01:45:33.859Z,60.72
2024-02-19T01:48:05.002Z,61.55
2024-02-19T01:50:38.312Z,62.22
2024-02-19T01:53:13.472Z,62.09
2024-02-19T01:55:43.806Z,61.52
2024-02-19T01:58:13.526Z,62.30
2024-02-19T02:00:44.068Z,61.83
2024-02-19T02:03:18.991Z,61.26
2024-02-19T02:05:49.234Z,61.51
2024-02-19T02:08:21.021Z,62.10
2024-02-19T02:10:56.163Z,63.47
2024-02-19T02:13:25.835Z,63.39
2024-02-19T02:15:54.949Z,63.67
2024-02-19T02:18:24.051Z,62.90
2024-02-19T02:20:53.166Z,61.59
2024-02-19T02:23:25.894Z,61.96
2024-02-19T02:25:55.233Z,62.11
2024-02-19T02:28:25.539Z,61.92
2024-02-19T02:30:55.056Z,61.89
2024-02-19T02:33:24.990Z,62.48
2024-02-19T02:35:54.245Z,62.29
2024-02-19T02:38:23.177Z,61.58
2024-02-19T02:40:54.749Z,61.90
2024-02-19T02:43:25.111Z,62.32
2024-02-19T02:45:54.525Z,62.48
2024-02-19T02:48:24.235Z,61.52
2024-02-19T02:50:53.094Z,62.37
2024-02-19T02:53:23.358Z,62.34
2024-02-19T02:55:52.243Z,62.34
2024-02-19T02:58:21.541Z,62.84
2024-02-19T03:00:53.714Z,62.52
2024-02-19T03:03:22.926Z,62.45
2024-02-19T03:05:52.225Z,62.12
2024-02-19T03:08:21.129Z,62.40
2024-02-19T03:10:52.005Z,62.12
2024-02-19T03:13:22.030Z,62.26
2024-02-19T03:15:51.152Z,62.19
2024-02-19T03:18:22.145Z,61.91
2024-02-19T03:20:53.145Z,61.94
2024-02-19T03:23:28.872Z,62.33
2024-02-19T03:25:58.030Z,62.80
2024-02-19T03:28:27.350Z,62.34
2024-02-19T03:30:56.376Z,62.32
2024-02-19T03:33:30.900Z,61.46
2024-02-19T03:36:00.825Z,61.80
2024-02-19T03:38:30.265Z,61.78
2024-02-19T03:40:59.263Z,62.10
2024-02-19T03:43:34.379Z,61.96
2024-02-19T03:46:05.507Z,62.69
2024-02-19T03:48:36.490Z,62.84
2024-02-19T03:51:05.930Z,63.05
2024-02-19T03:53:40.930Z,63.07
2024-02-19T03:56:10.322Z,63.31
2024-02-19T03:58:39.436Z,62.63
2024-02-19T04:01:09.108Z,61.78
2024-02-19T04:03:40.413Z,62.59
2024-02-19T04:06:09.463Z,61.82
2024-02-19T04:08:39.883Z,61.88
2024-02-19T04:11:08.781Z,63.46
2024-02-19T04:13:38.538Z,63.83
2024-02-19T04:16:10.322Z,63.74
2024-02-19T04:18:40.990Z,63.79
2024-02-19T04:21:10.397Z,63.96
2024-02-19T04:23:39.438Z,63.49
2024-02-19T04:26:08.229Z,63.53
2024-02-19T04:28:37.264Z,63.87
2024-02-19T04:31:10.237Z,63.34
2024-02-19T04:33:40.839Z,63.90
2024-02-19T04:36:09.743Z,63.54
2024-02-19T04:38:38.917Z,63.98
2024-02-19T04:41:08.885Z,63.53
2024-02-19T04:43:38.099Z,63.21
2024-02-19T04:46:07.388Z,62.97
2024-02-19T04:48:37.592Z,63.06
2024-02-19T04:51:08.342Z,63.18
2024-02-19T04:53:38.250Z,62.91
2024-02-19T04:56:08.404Z,62.74
2024-02-19T04:58:37.947Z,62.33
2024-02-19T05:01:07.321Z,62.50
2024-02-19T05:03:41.895Z,63.35
2024-02-19T05:06:12.827Z,63.98
2024-02-19T05:08:41.688Z,63.55
2024-02-19T05:11:10.783Z,63.30
2024-02-19T05:13:44.730Z,63.04
2024-02-19T05:16:17.563Z,63.37
2024-02-19T05:18:47.460Z,63.42
2024-02-19T05:21:19.388Z,63.87
2024-02-19T05:23:48.679Z,64.27
2024-02-19T05:26:27.209Z,64.01
2024-02-19T05:28:56.388Z,63.57
2024-02-19T05:31:35.353Z,62.95
2024-02-19T05:34:06.185Z,63.71
2024-02-19T05:36:37.092Z,63.50
2024-02-19T05:39:11.743Z,63.29
2024-02-19T05:41:41.264Z,63.74
2024-02-19T05:44:12.511Z,63.60
2024-02-19T05:46:41.209Z,63.15
2024-02-19T05:49:11.570Z,63.46
2024-02-19T05:51:42.706Z,64.49
2024-02-19T05:54:12.281Z,63.85
2024-02-19T05:56:44.579Z,64.12
2024-02-19T05:59:15.251Z,64.15
2024-02-19T06:01:44.494Z,64.45
2024-02-19T06:04:14.182Z,64.27
2024-02-19T06:06:45.251Z,64.32
2024-02-19T06:09:14.440Z,64.51
2024-02-19T06:11:45.657Z,64.90
2024-02-19T06:14:18.122Z,63.76
2024-02-19T06:16:47.250Z,64.17
2024-02-19T06:19:18.444Z,64.38
2024-02-19T06:21:48.828Z,63.78
2024-02-19T06:24:17.963Z,63.54
2024-02-19T06:26:46.881Z,64.08
2024-02-19T06:29:15.852Z,64.53
2024-02-19T06:31:47.301Z,64.97
2024-02-19T06:34:16.688Z,65.05
2024-02-19T06:36:46.454Z,65.06
2024-02-19T06:39:16.757Z,64.60
2024-02-19T06:41:46.310Z,64.74
2024-02-19T06:44:15.394Z,64.39
2024-02-19T06:46:44.489Z,64.09
2024-02-19T06:49:17.595Z,63.92
2024-02-19T06:51:47.032Z,63.83
2024-02-19T06:54:17.694Z,63.58
2024-02-19T06:56:47.167Z,63.11
2024-02-19T06:59:17.510Z,63.41
2024-02-19T07:01:47.010Z,63.61
2024-02-19T07:04:16.201Z,63.36
2024-02-19T07:06:46.150Z,62.92
2024-02-19T07:09:16.078Z,62.91
2024-02-19T07:11:46.316Z,62.60
2024-02-19T07:14:16.121Z,62.34
2024-02-19T07:16:45.343Z,61.98
2024-02-19T07:19:15.270Z,62.19
2024-02-19T07:21:45.846Z,62.24
2024-02-19T07:24:14.990Z,61.63
2024-02-19T07:26:44.138Z,62.19
2024-02-19T07:31:44.639Z,60.93
2024-02-19T07:34:13.723Z,61.34
2024-02-19T07:36:46.079Z,61.40
2024-02-19T07:39:15.876Z,61.08
2024-02-19T07:41:44.762Z,61.32
2024-02-19T07:44:15.088Z,61.78
2024-02-19T07:46:44.823Z,61.83
2024-02-19T07:49:14.149Z,61.35
2024-02-19T07:51:43.318Z,61.35
2024-02-19T07:54:13.063Z,60.80
2024-02-19T07:56:41.765Z,60.81
2024-02-19T07:59:10.603Z,60.57
2024-02-19T08:01:41.173Z,60.00
2024-02-19T08:04:10.406Z,59.98
2024-02-19T08:06:39.880Z,59.70
2024-02-19T08:09:09.097Z,59.43
2024-02-19T08:11:38.724Z,59.67
2024-02-19T08:14:07.968Z,59.46
2024-02-19T08:16:37.686Z,58.79
2024-02-19T08:19:08.121Z,59.17
2024-02-19T08:21:37.052Z,57.92
2024-02-19T08:24:06.799Z,57.80
2024-02-19T08:26:36.252Z,58.51
2024-02-19T08:29:05.468Z,58.92
2024-02-19T08:31:34.976Z,58.62
2024-02-19T08:34:04.532Z,58.24
2024-02-19T08:36:35.744Z,57.76
2024-02-19T08:39:07.982Z,58.00
2024-02-19T08:41:37.099Z,58.22
2024-02-19T08:44:06.669Z,58.42
2024-02-19T08:46:35.693Z,58.30
2024-02-19T08:49:04.948Z,58.38
2024-02-19T08:51:36.077Z,57.97
2024-02-19T08:54:06.013Z,59.42
2024-02-19T08:56:35.561Z,59.36
2024-02-19T08:59:05.476Z,58.79
2024-02-19T09:01:34.631Z,59.09
2024-02-19T09:04:06.683Z,60.37
2024-02-19T09:06:37.993Z,60.56
2024-02-19T09:09:08.444Z,61.22
2024-02-19T09:11:40.415Z,60.68
2024-02-19T09:14:09.920Z,60.45
2024-02-19T09:16:38.694Z,61.08
2024-02-19T09:19:10.647Z,60.48
2024-02-19T09:21:44.808Z,59.30
2024-02-19T09:24:14.221Z,60.41
2024-02-19T09:26:44.467Z,60.40
2024-02-19T09:29:14.137Z,61.12
2024-02-19T09:31:51.517Z,62.19
2024-02-19T09:34:23.793Z,62.44
2024-02-19T09:36:56.932Z,62.46
2024-02-19T09:39:26.278Z,62.01
2024-02-19T09:41:55.577Z,62.20
2024-02-19T09:44:24.681Z,62.68
2024-02-19T09:46:57.136Z,62.80
2024-02-19T09:49:29.715Z,62.32
2024-02-19T09:52:04.358Z,61.75
2024-02-19T09:54:33.813Z,61.89
2024-02-19T09:57:03.350Z,61.73
2024-02-19T09:59:32.907Z,62.25
2024-02-19T10:02:02.438Z,62.22
2024-02-19T10:04:33.024Z,61.27
2024-02-19T10:07:04.017Z,61.77
2024-02-19T10:09:33.968Z,61.66
2024-02-19T10:12:03.757Z,61.22
2024-02-19T10:14:32.730Z,60.35
2024-02-19T10:17:02.460Z,60.59
2024-02-19T10:19:31.696Z,60.46
2024-02-19T10:22:00.886Z,60.12
2024-02-19T10:24:32.044Z,60.80
2024-02-19T10:27:01.168Z,60.01
2024-02-19T10:29:30.897Z,60.55
2024-02-19T10:31:59.945Z,60.19
2024-02-19T10:34:29.397Z,59.70
2024-02-19T10:37:04.819Z,60.56
2024-02-19T10:39:35.338Z,60.40
2024-02-19T10:42:05.662Z,59.89
2024-02-19T10:44:35.890Z,60.04
2024-02-19T10:47:07.653Z,59.98
2024-02-19T10:49:37.369Z,60.07
2024-02-19T10:52:07.438Z,60.03
2024-02-19T10:55:02.474Z,60.14
2024-02-19T10:57:46.539Z,60.77
2024-02-19T11:00:16.435Z,59.67
2024-02-19T11:02:45.950Z,60.72
2024-02-19T11:05:15.944Z,60.76
2024-02-19T11:07:46.247Z,60.00
2024-02-19T11:10:22.484Z,59.97
2024-02-19T11:12:51.599Z,60.18
2024-02-19T11:15:22.329Z,60.93
2024-02-19T11:17:56.847Z,60.95
2024-02-19T11:20:26.947Z,60.81
2024-02-19T11:23:01.544Z,61.53
2024-02-19T11:25:32.059Z,60.49
2024-02-19T11:28:01.619Z,61.11
2024-02-19T11:30:32.581Z,61.56
2024-02-19T11:33:02.863Z,61.31
2024-02-19T11:35:36.397Z,61.99
2024-02-19T11:38:06.360Z,61.67
2024-02-19T11:40:37.212Z,61.71
2024-02-19T11:43:09.327Z,61.42
2024-02-19T11:45:39.933Z,61.98
2024-02-19T11:48:10.342Z,61.36
2024-02-19T11:50:41.251Z,60.31
2024-02-19T11:53:11.628Z,61.90
2024-02-19T11:58:29.153Z,60.92
2024-02-19T12:00:58.813Z,63.28
2024-02-19T12:03:28.991Z,63.48
2024-02-19T12:06:05.503Z,63.63
2024-02-19T12:08:35.158Z,61.78
2024-02-19T12:11:08.767Z,62.86
2024-02-19T12:13:40.170Z,63.13
2024-02-19T12:16:10.374Z,62.74
2024-02-19T12:18:41.672Z,62.50
2024-02-19T12:21:11.499Z,63.39
2024-02-19T12:23:42.429Z,62.95
2024-02-19T12:26:12.971Z,64.00
2024-02-19T12:28:42.433Z,64.90
2024-02-19T12:31:12.111Z,64.36
2024-02-19T12:33:41.495Z,63.99
2024-02-19T12:36:13.732Z,63.18
2024-02-19T12:38:43.930Z,63.02
2024-02-19T12:41:15.739Z,65.86
2024-02-19T12:43:45.811Z,65.50
2024-02-19T12:46:16.022Z,65.13
2024-02-19T12:48:45.448Z,65.58
2024-02-19T12:51:16.754Z,64.09
2024-02-19T12:53:51.212Z,65.07
2024-02-19T12:56:21.743Z,64.14
2024-02-19T12:58:50.771Z,64.60
2024-02-19T13:01:27.345Z,64.01
2024-02-19T13:04:01.556Z,64.27
2024-02-19T13:06:31.664Z,64.33
2024-02-19T13:09:01.804Z,63.65
2024-02-19T13:11:32.797Z,62.61
2024-02-19T13:14:04.007Z,63.01
2024-02-19T13:16:35.935Z,62.77
2024-02-19T13:19:09.881Z,62.70
2024-02-19T13:21:39.479Z,61.51
2024-02-19T13:24:08.778Z,60.88
2024-02-19T13:26:38.848Z,61.63
2024-02-19T13:29:07.929Z,62.13
2024-02-19T13:31:41.182Z,60.60
2024-02-19T13:34:11.277Z,60.97
2024-02-19T13:36:40.879Z,62.49
2024-02-19T13:39:10.308Z,63.37
2024-02-19T13:41:40.712Z,62.23
2024-02-19T13:44:09.558Z,63.89
2024-02-19T13:46:39.754Z,64.01
2024-02-19T13:49:09.110Z,64.11
2024-02-19T13:51:38.446Z,64.46
2024-02-19T13:54:07.912Z,64.45
2024-02-19T13:56:42.205Z,63.89
2024-02-19T13:59:11.613Z,63.31
2024-02-19T14:01:42.791Z,63.24
2024-02-19T14:04:13.457Z,62.62
2024-02-19T14:06:42.760Z,63.33
2024-02-19T14:09:12.795Z,63.51
2024-02-19T14:11:43.786Z,63.79
2024-02-19T14:14:17.484Z,63.21
2024-02-19T14:16:46.846Z,63.07
2024-02-19T14:19:16.249Z,63.38
2024-02-19T14:21:45.732Z,63.40
2024-02-19T14:24:15.400Z,63.37
2024-02-19T14:26:46.127Z,63.16
2024-02-19T14:29:16.261Z,62.79
2024-02-19T14:31:45.377Z,62.74
2024-02-19T14:34:14.588Z,62.83
2024-02-19T14:36:44.348Z,62.96
2024-02-19T14:41:58.516Z,62.14
2024-02-19T14:44:27.542Z,63.31
2024-02-19T14:47:02.595Z,62.53
2024-02-19T14:49:36.472Z,61.92
2024-02-19T14:52:06.761Z,62.02
2024-02-19T14:54:45.632Z,61.78
2024-02-19T14:57:16.391Z,61.73
2024-02-19T14:59:45.571Z,61.89
2024-02-19T15:02:16.559Z,61.86
2024-02-19T15:04:45.911Z,61.05
2024-02-19T15:07:15.259Z,61.42
2024-02-19T15:09:44.093Z,61.50
2024-02-19T15:12:19.649Z,61.68
2024-02-19T15:14:48.978Z,61.68
2024-02-19T15:17:18.600Z,61.48
2024-02-19T15:19:47.524Z,62.49
2024-02-19T15:22:17.107Z,62.68
2024-02-19T15:24:46.416Z,63.26
2024-02-19T15:27:17.224Z,69.09
2024-02-19T15:29:47.102Z,66.83
2024-02-19T15:32:19.030Z,65.74
2024-02-19T15:34:48.535Z,62.49
2024-02-19T15:37:19.761Z,61.68
2024-02-19T15:39:48.912Z,61.68
2024-02-19T15:42:22.027Z,60.98
2024-02-19T15:44:54.286Z,63.53
2024-02-19T15:47:23.926Z,64.77
2024-02-19T15:49:55.506Z,64.55
2024-02-19T15:52:29.402Z,65.24
2024-02-19T15:54:58.737Z,64.55
2024-02-19T15:57:29.296Z,65.18
2024-02-19T16:00:01.791Z,69.85
2024-02-19T16:02:35.000Z,67.75
2024-02-19T16:05:04.899Z,65.48
2024-02-19T16:07:34.616Z,62.94
2024-02-19T16:10:03.694Z,61.28
2024-02-19T16:12:34.956Z,60.77
2024-02-19T16:15:08.010Z,61.18
2024-02-19T16:17:37.697Z,61.63
2024-02-19T16:20:09.203Z,62.46
2024-02-19T16:22:40.145Z,62.75
2024-02-19T16:25:12.324Z,63.16
2024-02-19T16:27:43.243Z,63.04
2024-02-19T16:30:14.552Z,63.12
2024-02-19T16:32:44.238Z,63.69
2024-02-19T16:35:13.363Z,64.23
2024-02-19T16:37:42.785Z,64.49
2024-02-19T16:40:12.473Z,64.30
2024-02-19T16:42:43.564Z,64.72
2024-02-19T16:45:12.832Z,64.89
2024-02-19T16:47:41.797Z,65.12
2024-02-19T16:50:11.266Z,64.37
2024-02-19T16:52:40.515Z,64.31
2024-02-19T16:55:10.676Z,65.27
2024-02-19T16:57:39.787Z,65.45
2024-02-19T17:00:11.330Z,65.06
2024-02-19T17:02:40.436Z,66.25
2024-02-19T17:05:10.840Z,66.67
2024-02-19T17:07:40.156Z,66.32
2024-02-19T17:10:13.082Z,65.61
2024-02-19T17:12:45.214Z,66.80
2024-02-19T17:15:17.169Z,67.26
2024-02-19T17:17:46.771Z,67.50
2024-02-19T17:20:16.346Z,68.56
2024-02-19T17:22:45.202Z,68.43
2024-02-19T17:25:14.100Z,67.72
2024-02-19T17:27:43.875Z,67.17
2024-02-19T17:30:17.488Z,67.09
2024-02-19T17:32:47.105Z,66.52
2024-02-19T17:35:16.681Z,66.34
2024-02-19T17:37:46.159Z,66.42
2024-02-19T17:40:16.206Z,66.34
2024-02-19T17:42:48.362Z,64.74
2024-02-19T17:45:19.336Z,66.01
2024-02-19T17:47:51.692Z,66.31
2024-02-19T17:50:21.407Z,66.20
2024-02-19T17:52:50.430Z,65.72
2024-02-19T17:55:19.314Z,65.94
2024-02-19T17:57:49.553Z,65.70
2024-02-19T18:00:21.245Z,64.95
2024-02-19T18:02:51.121Z,65.54
2024-02-19T18:05:20.278Z,65.67
2024-02-19T18:07:49.178Z,65.44
2024-02-19T18:10:18.886Z,65.12
2024-02-19T18:12:48.332Z,65.61
2024-02-19T18:15:22.725Z,65.21
2024-02-19T18:17:54.246Z,64.79
2024-02-19T18:20:23.725Z,65.74
2024-02-19T18:22:53.095Z,66.22
2024-02-19T18:25:22.469Z,65.53
2024-02-19T18:27:51.571Z,66.07
2024-02-19T18:30:20.976Z,66.08
2024-02-19T18:32:50.408Z,65.77
2024-02-19T18:35:21.133Z,66.62
2024-02-19T18:37:50.596Z,65.87
2024-02-19T18:40:19.563Z,66.17
2024-02-19T18:42:49.525Z,67.05
2024-02-19T18:45:18.937Z,67.46
2024-02-19T18:47:49.504Z,67.47
2024-02-19T18:50:20.131Z,67.78
2024-02-19T18:52:49.298Z,67.57
2024-02-19T18:55:18.642Z,68.46
2024-02-19T18:57:47.709Z,67.75
2024-02-19T19:00:20.657Z,68.70
2024-02-19T19:02:57.998Z,69.09
2024-02-19T19:05:29.407Z,68.71
2024-02-19T19:08:01.653Z,68.95
2024-02-19T19:10:30.724Z,68.81
2024-02-19T19:13:00.123Z,69.01
2024-02-19T19:15:29.207Z,68.70
2024-02-19T19:17:58.491Z,68.54
2024-02-19T19:20:31.642Z,68.15
2024-02-19T19:23:00.846Z,67.97
2024-02-19T19:25:34.095Z,67.60
2024-02-19T19:28:03.237Z,66.57
2024-02-19T19:30:32.670Z,65.70
2024-02-19T19:33:03.872Z,66.32
2024-02-19T19:35:34.931Z,65.66
2024-02-19T19:38:04.361Z,66.18
2024-02-19T19:40:33.667Z,66.99
2024-02-19T19:43:03.039Z,66.55
2024-02-19T19:45:33.641Z,66.68
2024-02-19T19:48:02.929Z,66.39
2024-02-19T19:50:32.179Z,66.98
2024-02-19T19:53:02.895Z,66.95
2024-02-19T19:55:35.375Z,66.42
2024-02-19T19:58:11.376Z,65.78
2024-02-19T20:00:47.153Z,65.49
2024-02-19T20:03:16.482Z,65.70
2024-02-19T20:05:46.352Z,65.94
2024-02-19T20:08:28.254Z,65.18
2024-02-19T20:10:57.435Z,65.88
2024-02-19T20:13:26.410Z,65.55
2024-02-19T20:15:58.286Z,64.47
2024-02-19T20:18:29.323Z,66.21
2024-02-19T20:20:59.146Z,66.63
2024-02-19T20:23:34.431Z,67.22
2024-02-19T20:26:03.548Z,67.33
2024-02-19T20:28:35.214Z,67.73
2024-02-19T20:31:05.911Z,66.43
2024-02-19T20:33:35.555Z,66.76
2024-02-19T20:36:05.553Z,69.17
2024-02-19T20:38:37.123Z,69.53
2024-02-19T20:41:06.537Z,71.04
2024-02-19T20:43:36.474Z,70.95
2024-02-19T20:46:06.038Z,70.46
2024-02-19T20:48:35.193Z,69.43
2024-02-19T20:51:04.464Z,69.94
2024-02-19T20:53:33.578Z,70.59
2024-02-19T20:56:04.166Z,70.46
2024-02-19T20:58:33.381Z,70.19
2024-02-19T21:01:03.101Z,68.96
2024-02-19T21:03:40.083Z,70.04
2024-02-19T21:06:15.240Z,68.66
2024-02-19T21:08:44.280Z,68.37
2024-02-19T21:11:17.077Z,68.44
2024-02-19T21:13:46.343Z,68.06
2024-02-19T21:16:17.886Z,67.82
2024-02-19T21:18:48.333Z,67.31
2024-02-19T21:21:29.411Z,67.91
2024-02-19T21:24:05.067Z,67.13
2024-02-19T21:26:35.584Z,67.78
2024-02-19T21:29:05.531Z,68.00
2024-02-19T21:31:34.570Z,67.54
2024-02-19T21:34:09.637Z,67.62
2024-02-19T21:36:43.166Z,67.58
2024-02-19T21:39:12.490Z,68.44
2024-02-19T21:41:43.199Z,68.06
2024-02-19T21:44:12.931Z,68.45
2024-02-19T21:46:44.033Z,68.17
2024-02-19T21:49:18.736Z,67.84
2024-02-19T21:51:48.140Z,67.69
2024-02-19T21:54:17.901Z,67.19
2024-02-19T21:56:48.754Z,67.62
2024-02-19T21:59:18.665Z,67.53
2024-02-19T22:01:47.970Z,67.80
2024-02-19T22:04:17.806Z,67.88
2024-02-19T22:06:47.005Z,66.69
2024-02-19T22:09:16.220Z,65.29
2024-02-19T22:11:46.000Z,66.47
2024-02-19T22:14:16.560Z,66.64
2024-02-19T22:16:45.673Z,67.23
2024-02-19T22:19:15.323Z,65.21
2024-02-19T22:21:44.822Z,66.44
2024-02-19T22:24:14.330Z,66.23
2024-02-19T22:26:47.073Z,65.87
2024-02-19T22:29:17.853Z,65.90
2024-02-19T22:31:46.831Z,65.84
2024-02-19T22:34:15.680Z,64.61
2024-02-19T22:36:44.840Z,65.33
2024-02-19T22:39:14.036Z,66.36
2024-02-19T22:41:43.715Z,65.39
2024-02-19T22:44:12.783Z,65.91
2024-02-19T22:46:43.311Z,65.33
2024-02-19T22:49:12.447Z,64.62
2024-02-19T22:51:44.928Z,65.38
2024-02-19T22:54:14.821Z,65.05
2024-02-19T22:56:43.999Z,65.71
2024-02-19T22:59:18.936Z,65.29
2024-02-19T23:01:55.588Z,66.11
2024-02-19T23:04:24.893Z,66.37
2024-02-19T23:06:54.526Z,66.83
2024-02-19T23:09:25.151Z,67.28
2024-02-19T23:11:54.941Z,67.57
2024-02-19T23:14:24.583Z,67.87
2024-02-19T23:16:55.637Z,68.16
2024-02-19T23:19:25.384Z,68.35
2024-02-19T23:21:54.453Z,67.82
2024-02-19T23:24:23.809Z,67.30
2024-02-19T23:26:53.524Z,67.67
2024-02-19T23:29:22.713Z,67.43
2024-02-19T23:31:51.857Z,65.85
2024-02-19T23:34:22.848Z,66.29
2024-02-19T23:36:52.425Z,66.41
2024-02-19T23:39:21.462Z,66.56
2024-02-19T23:41:50.204Z,66.32
2024-02-19T23:44:19.049Z,65.80
2024-02-19T23:46:48.485Z,66.72
2024-02-19T23:49:17.800Z,66.35
2024-02-19T23:51:51.006Z,66.12
2024-02-19T23:54:20.363Z,65.84
2024-02-19T23:56:49.785Z,66.19
2024-02-19T23:59:19.201Z,66.45
